createdAt,value
2018-05-14T00:04:15.830Z,3.90
2018-05-14T00:09:18.462Z,2.47
2018-05-14T00:14:21.068Z,2.30
2018-05-14T00:19:26.505Z,2.10
2018-05-14T00:24:29.153Z,2.47
2018-05-14T00:29:32.653Z,2.00
2018-05-14T00:34:35.325Z,3.40
2018-05-14T00:39:37.881Z,1.90
2018-05-14T00:44:41.935Z,1.80
2018-05-14T00:49:45.275Z,2.20
2018-05-14T00:55:00.187Z,2.33
2018-05-14T01:00:02.834Z,2.20
2018-05-14T01:05:05.406Z,2.50
2018-05-14T01:10:07.983Z,2.50
2018-05-14T01:15:10.556Z,2.73
2018-05-14T01:20:13.165Z,3.00
2018-05-14T01:25:15.794Z,2.90
2018-05-14T01:30:18.387Z,3.40
2018-05-14T01:35:21.717Z,3.70
2018-05-14T01:40:25.045Z,3.40
2018-05-14T01:45:27.602Z,2.60
2018-05-14T01:50:30.198Z,2.63
2018-05-14T01:55:32.797Z,3.20
2018-05-14T02:00:36.135Z,3.07
2018-05-14T02:05:40.578Z,3.03
2018-05-14T02:10:43.158Z,2.80
2018-05-14T02:15:46.484Z,3.40
2018-05-14T02:20:49.059Z,3.20
2018-05-14T02:25:52.410Z,3.57
2018-05-14T02:30:56.981Z,3.77
2018-05-14T02:35:59.628Z,2.73
2018-05-14T02:41:05.930Z,3.47
2018-05-14T02:46:11.084Z,3.23
2018-05-14T02:51:18.427Z,3.03
2018-05-14T02:56:24.038Z,2.90
2018-05-14T03:01:26.628Z,3.90
2018-05-14T03:06:29.192Z,3.93
2018-05-14T03:11:31.792Z,3.53
2018-05-14T03:16:34.427Z,4.97
2018-05-14T03:21:37.022Z,6.30
2018-05-14T03:26:39.667Z,8.83
2018-05-14T03:31:42.222Z,7.10
2018-05-14T03:36:44.790Z,7.43
2018-05-14T03:41:50.205Z,6.80
2018-05-14T03:46:54.056Z,6.47
2018-05-14T03:51:59.593Z,8.90
2018-05-14T03:57:02.173Z,7.10
2018-05-14T04:02:25.515Z,8.07
2018-05-14T04:07:28.058Z,9.10
2018-05-14T04:12:34.381Z,9.40
2018-05-14T04:17:36.952Z,9.43
2018-05-14T04:22:42.749Z,10.47
2018-05-14T04:27:45.409Z,6.97
2018-05-14T04:32:51.772Z,8.50
2018-05-14T04:37:54.868Z,9.67
2018-05-14T04:42:57.581Z,7.77
2018-05-14T04:48:01.375Z,8.40
2018-05-14T04:53:04.891Z,9.20
2018-05-14T04:58:08.234Z,7.40
2018-05-14T05:03:10.874Z,7.67
2018-05-14T05:08:13.468Z,6.67
2018-05-14T05:13:18.145Z,6.70
2018-05-14T05:18:20.752Z,7.23
2018-05-14T05:23:23.355Z,7.30
2018-05-14T05:28:26.035Z,8.23
2018-05-14T05:33:28.642Z,8.93
2018-05-14T05:38:34.595Z,10.60
2018-05-14T05:49:32.090Z,9.13
2018-05-14T05:54:37.497Z,9.60
2018-05-14T06:05:23.200Z,10.00
2018-05-14T06:10:54.458Z,10.97
2018-05-14T06:16:20.720Z,9.57
2018-05-14T06:40:38.877Z,8.27
